Time;durP1;ratioP1;P1;durP2;ratioP2;P2;SDS_P1;SDS_P2;PMS_P1;PMS_P2;Temp;Humidity;BMP_temperature;BMP_pressure;BME280_temperature;BME280_humidity;BME280_pressure;Samples;Min_cycle;Max_cycle;Signal;HPM_P1;HPM_P2
2023/04/06 00:00:44;;;;;;;21.52;11.65;;;154.10;2252.80;;;;;;5080855;28;20039;-69
2023/04/06 00:03:09;;;;;;;;;;;154.20;2252.80;;;;;;5096689;28;20411;-69
2023/04/06 00:05:35;;;;;;;22.23;12.20;;;154.30;2252.80;;;;;;5095527;28;19911;-68
2023/04/06 00:08:01;;;;;;;;;;;154.10;2252.80;;;;;;5096323;28;20423;-69
2023/04/06 00:10:27;;;;;;;18.77;11.10;;;154.20;2252.80;;;;;;5095925;28;19904;-68
2023/04/06 00:12:53;;;;;;;26.77;12.23;;;154.20;2252.80;;;;;;5095917;28;20044;-68
2023/04/06 00:15:20;;;;;;;21.73;11.85;;;154.20;2252.80;;;;;;5095113;28;20473;-69
2023/04/06 00:17:45;;;;;;;22.33;12.30;;;154.20;2252.80;;;;;;5094013;28;20036;-69
2023/04/06 00:20:11;;;;;;;;;;;154.10;2252.80;;;;;;5094265;28;20062;-69
2023/04/06 00:22:37;;;;;;;22.95;11.05;;;154.10;2252.80;;;;;;5083023;28;19904;-69
2023/04/06 00:25:02;;;;;;;;;;;154.10;2252.80;;;;;;5095944;28;20052;-70
2023/04/06 00:27:28;;;;;;;25.17;12.40;;;154.10;2252.80;;;;;;5095431;28;19904;-68
2023/04/06 00:29:54;;;;;;;;;;;154.00;2252.80;;;;;;5096028;28;20028;-69
2023/04/06 00:32:19;;;;;;;20.23;11.02;;;153.90;2252.80;;;;;;5095219;28;19947;-69
2023/04/06 00:34:45;;;;;;;;;;;153.90;2252.80;;;;;;5095951;28;20055;-69
2023/04/06 00:37:11;;;;;;;23.75;12.52;;;153.90;2252.80;;;;;;5095577;28;19911;-69
2023/04/06 00:39:37;;;;;;;28.23;13.55;;;153.90;2252.80;;;;;;5094748;28;20042;-75
2023/04/06 00:42:07;;;;;;;;;;;153.90;2252.80;;;;;;5095645;28;20020;-71
2023/04/06 00:44:33;;;;;;;20.42;11.25;;;153.90;2252.80;;;;;;5093342;28;19904;-78
2023/04/06 00:46:59;;;;;;;;;;;153.80;2252.80;;;;;;5087962;28;20436;-69
2023/04/06 00:49:24;;;;;;;21.13;11.90;;;153.80;2252.80;;;;;;5088546;28;19956;-73
2023/04/06 00:51:50;;;;;;;;;;;153.80;2252.80;;;;;;5094497;28;20024;-68
2023/04/06 00:54:16;;;;;;;21.65;12.65;;;153.70;2252.80;;;;;;5094999;28;20352;-68
2023/04/06 00:56:42;;;;;;;;;;;153.80;2252.80;;;;;;5095486;28;20032;-67
2023/04/06 00:59:08;;;;;;;26.80;13.60;;;153.80;2252.80;;;;;;5093230;28;19907;-68
2023/04/06 01:01:34;;;;;;;;;;;153.60;2252.80;;;;;;5095313;28;20027;-68
2023/04/06 01:03:59;;;;;;;25.88;14.23;;;153.70;2252.80;;;;;;5094968;28;20422;-68
2023/04/06 01:06:25;;;;;;;;;;;153.70;2252.80;;;;;;5095043;28;20381;-68
2023/04/06 01:08:51;;;;;;;26.42;13.25;;;153.60;2252.80;;;;;;5094506;28;19911;-68
2023/04/06 01:11:17;;;;;;;;;;;128.90;2252.80;;;;;;5095029;28;20532;-68
2023/04/06 01:13:42;;;;;;;20.25;13.02;;;153.70;2252.80;;;;;;5094520;28;20011;-68
2023/04/06 01:16:09;;;;;;;;;;;153.70;2252.80;;;;;;5095012;28;20111;-77
2023/04/06 01:18:35;;;;;;;28.38;11.88;;;153.70;2252.80;;;;;;5093937;28;19943;-68
2023/04/06 01:21:01;;;;;;;25.48;14.18;;;153.90;2252.80;;;;;;5094436;28;20505;-68
2023/04/06 01:23:27;;;;;;;;;;;153.90;2252.80;;;;;;5094842;28;20052;-68
2023/04/06 01:25:53;;;;;;;24.92;13.48;;;153.90;2252.80;;;;;;5094491;28;20319;-68
2023/04/06 01:28:18;;;;;;;;;;;153.70;2252.80;;;;;;5094776;28;20027;-68
2023/04/06 01:30:44;;;;;;;23.42;14.10;;;128.90;2252.80;;;;;;5094324;28;19943;-68
2023/04/06 01:33:10;;;;;;;25.38;15.60;;;153.60;2252.80;;;;;;5093033;28;20035;-68
2023/04/06 01:35:36;;;;;;;;;;;128.90;2252.80;;;;;;5094710;28;20024;-68
2023/04/06 01:38:02;;;;;;;23.50;14.60;;;153.70;2252.80;;;;;;5094164;28;19955;-68
2023/04/06 01:40:27;;;;;;;;;;;153.60;2252.80;;;;;;5094543;28;20059;-68
2023/04/06 01:42:53;;;;;;;26.15;15.32;;;153.80;2252.80;;;;;;5093803;28;19904;-68
2023/04/06 01:45:19;;;;;;;;;;;153.60;2252.80;;;;;;5086376;28;20048;-68
2023/04/06 01:47:45;;;;;;;29.45;16.70;;;153.60;2252.80;;;;;;5087115;28;20352;-68
2023/04/06 01:50:10;;;;;;;26.95;16.50;;;128.90;2252.80;;;;;;5094202;28;20114;-68
2023/04/06 01:52:37;;;;;;;;;;;128.90;2252.80;;;;;;5094146;28;20103;-68
2023/04/06 01:55:03;;;;;;;29.23;15.90;;;153.60;2252.80;;;;;;5093866;28;19930;-68
2023/04/06 01:57:28;;;;;;;;;;;128.70;2252.80;;;;;;5093900;28;20085;-68
2023/04/06 01:59:54;;;;;;;24.33;13.05;;;128.90;2252.80;;;;;;5093826;28;19904;-68
2023/04/06 02:02:20;;;;;;;;;;;128.90;2252.80;;;;;;5093996;28;20032;-68
2023/04/06 02:04:46;;;;;;;28.15;15.80;;;128.90;2252.80;;;;;;5092214;28;19904;-68
2023/04/06 02:07:11;;;;;;;;;;;128.70;2252.80;;;;;;5094072;28;20115;-69
2023/04/06 02:09:37;;;;;;;27.92;14.95;;;128.90;2252.80;;;;;;5091722;28;19955;-68
2023/04/06 02:12:03;;;;;;;;;;;128.90;2252.80;;;;;;5093787;28;20098;-68
2023/04/06 02:14:28;;;;;;;31.30;16.65;;;128.80;2252.80;;;;;;5093290;28;19914;-68
2023/04/06 02:16:54;;;;;;;;;;;128.90;2252.80;;;;;;5093817;28;20044;-68
2023/04/06 02:19:20;;;;;;;26.83;15.85;;;128.90;2252.80;;;;;;5093618;28;20277;-68
2023/04/06 02:21:45;;;;;;;;;;;153.60;2252.80;;;;;;5093770;28;20051;-68
2023/04/06 02:24:11;;;;;;;26.45;15.45;;;128.90;2252.80;;;;;;5092031;28;19998;-68
2023/04/06 02:26:37;;;;;;;;;;;128.90;2252.80;;;;;;5093672;28;20028;-68
2023/04/06 02:29:02;;;;;;;33.10;17.20;;;153.60;2252.80;;;;;;5093222;28;20380;-68
2023/04/06 02:31:28;;;;;;;;;;;153.60;2252.80;;;;;;5092197;28;20078;-68
2023/04/06 02:33:54;;;;;;;27.85;15.82;;;128.80;2252.80;;;;;;5091915;28;19943;-68
2023/04/06 02:36:20;;;;;;;;;;;128.60;2252.80;;;;;;5093320;28;20074;-68
2023/04/06 02:38:45;;;;;;;31.23;16.63;;;128.60;2252.80;;;;;;5093023;28;19912;-69
2023/04/06 02:41:11;;;;;;;;;;;128.80;2252.80;;;;;;5093920;28;20037;-68
2023/04/06 02:43:37;;;;;;;31.67;17.30;;;128.90;2252.80;;;;;;5092747;28;19999;-68
2023/04/06 02:46:02;;;;;;;;;;;153.70;2252.80;;;;;;5093377;28;20401;-68
2023/04/06 02:48:28;;;;;;;34.22;16.67;;;153.90;2252.80;;;;;;5093342;28;19953;-68
2023/04/06 02:50:54;;;;;;;;;;;153.90;2252.80;;;;;;5093580;28;20024;-68
2023/04/06 02:53:20;;;;;;;30.10;17.77;;;153.90;2252.80;;;;;;5092961;28;19904;-68
2023/04/06 02:55:45;;;;;;;;;;;153.60;2252.80;;;;;;5093507;28;20051;-69
2023/04/06 02:58:11;;;;;;;31.92;17.38;;;153.80;2252.80;;;;;;5093119;28;20008;-68
2023/04/06 03:00:37;;;;;;;;;;;153.80;2252.80;;;;;;5093174;28;20081;-67
2023/04/06 03:03:03;;;;;;;35.17;18.27;;;128.90;2252.80;;;;;;5093185;28;19987;-68
2023/04/06 03:05:28;;;;;;;;;;;128.90;2252.80;;;;;;5093541;28;20034;-68
2023/04/06 03:07:54;;;;;;;30.13;16.65;;;153.80;2252.80;;;;;;5084200;28;19970;-68
2023/04/06 03:10:20;;;;;;;;;;;153.80;2252.80;;;;;;5087390;28;20056;-68
2023/04/06 03:12:46;;;;;;;26.40;16.58;;;153.90;2252.80;;;;;;5108407;28;19905;-69
2023/04/06 03:15:11;;;;;;;;;;;154.00;2252.80;;;;;;5092836;28;20066;-68
2023/04/06 03:17:37;;;;;;;32.05;16.95;;;154.00;2252.80;;;;;;5092856;28;19970;-68
2023/04/06 03:20:03;;;;;;;;;;;154.00;2252.80;;;;;;5093108;28;20020;-68
2023/04/06 03:22:29;;;;;;;44.70;19.35;;;154.10;2252.80;;;;;;5092956;28;19904;-69
2023/04/06 03:24:55;;;;;;;;;;;154.00;2252.80;;;;;;5093015;28;20357;-68
2023/04/06 03:27:20;;;;;;;38.63;17.50;;;154.00;2252.80;;;;;;5092807;28;19904;-68
2023/04/06 03:29:46;;;;;;;;;;;153.90;2252.80;;;;;;5092740;28;20499;-68
2023/04/06 03:32:11;;;;;;;35.55;17.10;;;154.00;2252.80;;;;;;5092800;28;19904;-68
2023/04/06 03:34:37;;;;;;;;;;;153.90;2252.80;;;;;;5093210;28;20048;-68
2023/04/06 03:37:03;;;;;;;30.92;16.98;;;153.90;2252.80;;;;;;5092752;28;19921;-68
2023/04/06 03:39:29;;;;;;;;;;;153.90;2252.80;;;;;;5091395;28;20457;-68
2023/04/06 03:41:55;;;;;;;39.20;22.33;;;153.80;2252.80;;;;;;5092636;28;19904;-68
2023/04/06 03:44:20;;;;;;;;;;;153.80;2252.80;;;;;;5092375;28;20477;-68
2023/04/06 03:46:46;;;;;;;33.58;17.67;;;153.80;2252.80;;;;;;5090536;28;19920;-68
2023/04/06 03:49:12;;;;;;;;;;;153.70;2252.80;;;;;;5093179;28;20028;-68
2023/04/06 03:51:37;;;;;;;28.63;16.15;;;153.60;2252.80;;;;;;5090437;28;19908;-68
2023/04/06 03:54:03;;;;;;;;;;;153.60;2252.80;;;;;;5092770;28;20029;-68
2023/04/06 03:56:29;;;;;;;32.42;17.05;;;153.60;2252.80;;;;;;5094987;28;19911;-68
2023/04/06 03:58:55;;;;;;;;;;;128.80;2252.80;;;;;;5096721;28;20023;-68
2023/04/06 04:01:20;;;;;;;30.38;16.02;;;128.70;2252.80;;;;;;5096032;28;19910;-68
2023/04/06 04:03:46;;;;;;;;;;;128.70;2252.80;;;;;;5096335;28;20024;-68
2023/04/06 04:06:12;;;;;;;26.80;14.35;;;128.70;2252.80;;;;;;5095740;28;19931;-68
2023/04/06 04:08:37;;;;;;;;;;;128.80;2252.80;;;;;;5096312;28;20065;-68
2023/04/06 04:11:03;;;;;;;27.58;15.43;;;128.80;2252.80;;;;;;5095680;28;19961;-68
2023/04/06 04:13:29;;;;;;;;;;;128.80;2252.80;;;;;;5096101;28;20039;-68
2023/04/06 04:15:54;;;;;;;34.75;15.82;;;128.90;2252.80;;;;;;5093728;28;19958;-67
2023/04/06 04:18:20;;;;;;;;;;;128.80;2252.80;;;;;;5096079;28;20044;-68
2023/04/06 04:20:46;;;;;;;25.50;14.90;;;128.80;2252.80;;;;;;5095567;28;19904;-68
2023/04/06 04:23:11;;;;;;;;;;;128.70;2252.80;;;;;;5096360;28;20028;-68
2023/04/06 04:25:37;;;;;;;36.75;18.05;;;128.70;2252.80;;;;;;5095548;28;20265;-68
2023/04/06 04:28:03;;;;;;;;;;;128.60;2252.80;;;;;;5096186;28;20077;-68
2023/04/06 04:30:28;;;;;;;40.85;21.98;;;128.60;2252.80;;;;;;5095334;28;19904;-68
2023/04/06 04:32:54;;;;;;;;;;;128.50;2252.80;;;;;;5095921;28;20095;-68
2023/04/06 04:35:20;;;;;;;63.47;34.58;;;128.50;2252.80;;;;;;5095710;28;19926;-68
2023/04/06 04:37:45;;;;;;;;;;;128.40;2252.80;;;;;;5095813;28;20035;-68
2023/04/06 04:40:11;;;;;;;33.05;19.85;;;128.30;2252.80;;;;;;5095054;28;19957;-68
2023/04/06 04:42:37;;;;;;;;;;;128.10;2252.80;;;;;;5095905;28;20020;-68
2023/04/06 04:45:03;;;;;;;30.48;15.82;;;128.10;2252.80;;;;;;5094684;28;19916;-68
2023/04/06 04:47:29;;;;;;;;;;;128.10;2252.80;;;;;;5094454;28;20028;-68
2023/04/06 04:49:54;;;;;;;27.83;14.40;;;128.00;2252.80;;;;;;5093725;28;19904;-68
2023/04/06 04:52:20;;;;;;;;;;;128.10;2252.80;;;;;;5095864;28;20473;-68
2023/04/06 04:54:46;;;;;;;26.38;14.45;;;128.10;2252.80;;;;;;5110715;28;19907;-68
2023/04/06 04:57:12;;;;;;;30.15;16.35;;;128.20;2252.80;;;;;;5095195;28;20036;-69
2023/04/06 04:59:38;;;;;;;;;;;128.20;2252.80;;;;;;5095170;28;20069;-69
2023/04/06 05:02:04;;;;;;;30.48;14.35;;;128.20;2252.80;;;;;;5094995;28;20417;-69
2023/04/06 05:04:29;;;;;;;;;;;128.20;2252.80;;;;;;5095073;28;20016;-68
2023/04/06 05:07:08;;;;;;;24.17;13.57;;;128.10;2252.80;;;;;;5094687;28;19904;-69
2023/04/06 05:09:34;;;;;;;27.77;13.13;;;103.20;2227.20;;;;;;5060217;28;20081;-69
2023/04/06 05:12:00;;;;;;;;;;;128.00;2252.80;;;;;;5065514;28;20117;-68
2023/04/06 05:14:26;;;;;;;21.85;12.25;;;128.10;2252.80;;;;;;5063169;28;19967;-68
2023/04/06 05:16:52;;;;;;;26.27;14.18;;;103.30;2227.20;;;;;;5061655;28;20048;-70
2023/04/06 05:19:18;;;;;;;;;;;103.10;2227.20;;;;;;5068109;28;20021;-70
2023/04/06 05:21:43;;;;;;;32.03;15.77;;;103.10;2227.20;;;;;;5067639;28;19908;-69
2023/04/06 05:24:09;;;;;;;;;;;103.00;2227.20;;;;;;5059912;28;20025;-69
2023/04/06 05:26:35;;;;;;;33.28;16.77;;;103.00;2227.20;;;;;;5065138;28;19912;-70
2023/04/06 05:29:01;;;;;;;;;;;103.10;2227.20;;;;;;5059048;28;20048;-69
2023/04/06 05:31:26;;;;;;;29.38;15.52;;;103.00;2227.20;;;;;;5063970;28;19909;-68
2023/04/06 05:33:52;;;;;;;;;;;103.10;2227.20;;;;;;5063652;28;20386;-69
2023/04/06 05:36:18;;;;;;;30.75;16.17;;;103.10;2227.20;;;;;;5078479;28;19913;-68
2023/04/06 05:38:43;;;;;;;;;;;103.00;2227.20;;;;;;5057543;28;20112;-68
2023/04/06 05:41:09;;;;;;;33.85;17.08;;;102.80;2227.20;;;;;;5077209;28;19909;-72
2023/04/06 05:43:35;;;;;;;;;;;103.00;2227.20;;;;;;5063785;28;20111;-70
2023/04/06 05:46:00;;;;;;;39.33;16.83;;;102.90;2227.20;;;;;;5059405;28;19917;-70
2023/04/06 05:48:26;;;;;;;;;;;103.10;2227.20;;;;;;5061968;28;20041;-70
2023/04/06 05:50:52;;;;;;;35.53;17.38;;;103.30;2227.20;;;;;;5056736;28;19909;-69
2023/04/06 05:53:18;;;;;;;36.97;19.25;;;103.30;2227.20;;;;;;5066279;28;20052;-69
2023/04/06 05:55:44;;;;;;;;;;;128.10;2252.80;;;;;;5064822;28;20064;-69
2023/04/06 05:58:10;;;;;;;30.13;12.80;;;103.30;2227.20;;;;;;5059390;28;20285;-69
2023/04/06 06:00:35;;;;;;;;;;;103.20;2227.20;;;;;;5057411;28;20021;-71
2023/04/06 06:03:04;;;;;;;29.35;11.48;;;103.20;2227.20;;;;;;5060240;28;19909;-69
2023/04/06 06:05:30;;;;;;;26.95;10.93;;;103.10;2227.20;;;;;;5065018;28;20052;-70
2023/04/06 06:07:55;;;;;;;;;;;103.20;2227.20;;;;;;5063742;28;20122;-69
2023/04/06 06:10:21;;;;;;;21.08;9.05;;;128.10;2252.80;;;;;;5061568;28;19908;-69
2023/04/06 06:12:47;;;;;;;;;;;128.30;2252.80;;;;;;5059728;28;20028;-68
2023/04/06 06:15:12;;;;;;;20.33;10.45;;;128.30;2252.80;;;;;;5062960;28;19966;-69
2023/04/06 06:17:38;;;;;;;;;;;128.30;2252.80;;;;;;5065364;28;20123;-71
2023/04/06 06:20:07;;;;;;;26.10;10.35;;;128.50;2252.80;;;;;;5063562;28;19948;-74
2023/04/06 06:22:33;;;;;;;23.73;10.30;;;128.60;2252.80;;;;;;5058848;28;20112;-77
2023/04/06 06:24:58;;;;;;;;;;;128.60;2252.80;;;;;;5057055;28;20063;-68
2023/04/06 06:27:24;;;;;;;27.63;13.82;;;128.90;2252.80;;;;;;5064924;28;20250;-76
2023/04/06 06:29:49;;;;;;;;;;;128.60;2252.80;;;;;;5061291;28;20064;-73
2023/04/06 06:32:15;;;;;;;20.23;11.38;;;128.70;2252.80;;;;;;5062979;28;19905;-70
2023/04/06 06:34:41;;;;;;;;;;;128.70;2252.80;;;;;;5057054;28;20390;-69
2023/04/06 06:37:07;;;;;;;21.35;12.75;;;153.60;2227.20;;;;;;5055709;28;19978;-69
2023/04/06 06:39:32;;;;;;;;;;;153.70;2150.40;;;;;;5067051;28;20024;-69
2023/04/06 06:42:00;;;;;;;13.15;6.85;;;153.80;2099.20;;;;;;5072326;28;19976;-70
2023/04/06 06:44:27;;;;;;;12.77;6.38;;;153.80;2048.00;;;;;;5056603;28;20029;-70
2023/04/06 06:46:52;;;;;;;;;;;153.90;2048.00;;;;;;5059569;28;20057;-70
2023/04/06 06:49:20;;;;;;;16.30;7.75;;;153.90;2022.40;;;;;;5054420;28;19927;-71
2023/04/06 06:51:46;;;;;;;14.63;7.78;;;154.10;2073.60;;;;;;5078052;28;20022;-70
2023/04/06 06:54:12;;;;;;;20.48;8.82;;;154.10;2073.60;;;;;;5067190;28;20359;-69
2023/04/06 06:56:38;;;;;;;11.93;6.85;;;154.20;2073.60;;;;;;5066581;28;20553;-69
2023/04/06 06:59:05;;;;;;;12.05;6.00;;;154.30;2048.00;;;;;;5061817;28;20029;-70
2023/04/06 07:01:34;;;;;;;9.70;6.22;;;154.50;2099.20;;;;;;5060269;28;20029;-69
2023/04/06 07:04:00;;;;;;;13.07;7.53;;;179.20;2048.00;;;;;;5064221;28;20471;-70
2023/04/06 07:06:26;;;;;;;;;;;179.40;2022.40;;;;;;5056711;28;20029;-70
2023/04/06 07:08:51;;;;;;;20.42;7.60;;;179.40;2022.40;;;;;;5079584;28;19958;-69
2023/04/06 07:11:17;;;;;;;;;;;179.60;2022.40;;;;;;5062887;28;20025;-71
2023/04/06 07:13:43;;;;;;;13.27;7.20;;;179.70;1971.20;;;;;;5065687;28;19908;-69
2023/04/06 07:16:08;;;;;;;;;;;179.80;1996.80;;;;;;5058609;28;20371;-69
2023/04/06 07:18:34;;;;;;;14.02;6.10;;;179.70;1996.80;;;;;;5065267;28;19955;-70
2023/04/06 07:21:00;;;;;;;;;;;179.80;1945.60;;;;;;5063154;28;20021;-71
2023/04/06 07:23:25;;;;;;;14.70;6.32;;;179.90;1894.40;;;;;;5059926;28;19909;-70
2023/04/06 07:25:53;;;;;;;;;;;180.00;1894.40;;;;;;5058339;28;20122;-69
2023/04/06 07:28:19;;;;;;;10.13;5.95;;;180.10;1868.80;;;;;;5056693;28;19939;-70
2023/04/06 07:30:44;;;;;;;;;;;180.10;1843.20;;;;;;5072852;28;20055;-71
2023/04/06 07:33:10;;;;;;;11.38;5.75;;;180.10;1817.60;;;;;;5062833;28;19909;-70
2023/04/06 07:35:37;;;;;;;;;;;204.80;1817.60;;;;;;5067884;28;20027;-73
2023/04/06 07:38:03;;;;;;;8.53;4.50;;;205.00;1792.00;;;;;;5064704;28;19924;-70
2023/04/06 07:40:31;;;;;;;;;;;205.00;1817.60;;;;;;5071876;28;20344;-73
2023/04/06 07:42:57;;;;;;;11.50;6.35;;;205.10;1792.00;;;;;;5067018;28;20003;-68
2023/04/06 07:45:23;;;;;;;;;;;205.10;1817.60;;;;;;5066171;28;20120;-70
2023/04/06 07:47:49;;;;;;;12.43;7.03;;;205.00;1792.00;;;;;;5064861;28;20275;-70
2023/04/06 07:50:15;;;;;;;12.30;6.88;;;205.10;1766.40;;;;;;5058374;28;20025;-69
2023/04/06 07:52:41;;;;;;;;;;;205.20;1792.00;;;;;;5068902;28;20107;-69
2023/04/06 07:55:07;;;;;;;15.52;6.68;;;205.30;1792.00;;;;;;5067431;28;20014;-69
2023/04/06 07:57:33;;;;;;;16.02;6.22;;;205.30;1766.40;;;;;;5079214;28;20041;-68
2023/04/06 07:59:59;;;;;;;;;;;205.40;1740.80;;;;;;5068224;28;20134;-69
2023/04/06 08:02:24;;;;;;;11.38;5.95;;;205.40;1740.80;;;;;;5065543;28;20038;-68
2023/04/06 08:04:50;;;;;;;;;;;205.40;1766.40;;;;;;5068825;28;20077;-69
2023/04/06 08:07:16;;;;;;;13.20;6.90;;;205.30;1715.20;;;;;;5062887;28;19911;-69
2023/04/06 08:09:41;;;;;;;;;;;205.40;1740.80;;;;;;5081349;28;20028;-69
2023/04/06 08:12:07;;;;;;;14.60;6.75;;;205.40;1766.40;;;;;;5059994;28;19913;-70
2023/04/06 08:14:32;;;;;;;;;;;205.30;1766.40;;;;;;5062408;28;20100;-69
2023/04/06 08:16:58;;;;;;;13.57;7.68;;;205.40;1766.40;;;;;;5059208;28;19920;-69
2023/04/06 08:19:24;;;;;;;;;;;205.40;1766.40;;;;;;5068967;28;20371;-67
2023/04/06 08:21:51;;;;;;;13.38;7.25;;;205.40;1740.80;;;;;;5062580;28;19912;-68
2023/04/06 08:24:17;;;;;;;15.93;8.05;;;205.30;1766.40;;;;;;5088255;28;20028;-70
2023/04/06 08:26:42;;;;;;;;;;;205.40;1766.40;;;;;;5064320;28;20032;-69
2023/04/06 08:29:08;;;;;;;16.23;7.45;;;205.50;1766.40;;;;;;5061890;28;19962;-69
2023/04/06 08:31:34;;;;;;;;;;;205.40;1766.40;;;;;;5067522;28;20116;-70
2023/04/06 08:34:00;;;;;;;14.23;7.38;;;205.50;1766.40;;;;;;5057195;28;19916;-74
2023/04/06 08:36:26;;;;;;;14.30;7.82;;;205.50;1766.40;;;;;;5072567;28;20437;-70
2023/04/06 08:38:52;;;;;;;;;;;205.60;1843.20;;;;;;5058564;28;20025;-69
2023/04/06 08:41:18;;;;;;;14.85;7.82;;;205.70;1843.20;;;;;;5066322;28;19909;-71
2023/04/06 08:43:52;;;;;;;16.10;7.82;;;205.70;1817.60;;;;;;5058161;28;20025;-76
2023/04/06 08:46:18;;;;;;;13.52;7.78;;;205.60;1817.60;;;;;;5063332;28;20524;-70
2023/04/06 08:48:45;;;;;;;;;;;205.70;1817.60;;;;;;5061761;28;20371;-69
2023/04/06 08:51:11;;;;;;;11.50;6.30;;;230.40;1843.20;;;;;;5061997;28;19912;-69
2023/04/06 08:53:37;;;;;;;13.60;8.07;;;230.40;1817.60;;;;;;5062938;28;20040;-71
2023/04/06 08:56:04;;;;;;;14.57;7.68;;;230.50;1843.20;;;;;;5062583;28;20028;-69
2023/04/06 08:58:35;;;;;;;16.15;6.90;;;230.50;1868.80;;;;;;5067134;28;20168;-69
2023/04/06 09:01:05;;;;;;;20.58;10.85;;;230.60;1792.00;;;;;;5059183;28;20071;-69
2023/04/06 09:03:34;;;;;;;20.55;11.25;;;230.70;1792.00;;;;;;5059374;28;20129;-69
2023/04/06 09:06:00;;;;;;;17.00;9.85;;;230.80;1792.00;;;;;;5065510;28;20024;-68
2023/04/06 09:08:26;;;;;;;18.65;7.82;;;230.90;1792.00;;;;;;5064287;28;20107;-68
2023/04/06 09:10:52;;;;;;;15.07;8.52;;;231.00;1740.80;;;;;;5065213;28;20092;-69
2023/04/06 09:13:18;;;;;;;15.10;7.85;;;231.00;1792.00;;;;;;5060154;28;20032;-68
2023/04/06 09:15:44;;;;;;;12.70;7.82;;;230.90;1740.80;;;;;;5057494;28;20036;-69
2023/04/06 09:18:10;;;;;;;15.52;8.35;;;230.90;1715.20;;;;;;5065973;28;20097;-68
2023/04/06 09:20:35;;;;;;;;;;;231.00;1766.40;;;;;;5061235;28;20029;-68
2023/04/06 09:23:01;;;;;;;10.77;6.13;;;231.30;1740.80;;;;;;5061353;28;19915;-69
2023/04/06 09:25:27;;;;;;;;;;;231.20;1638.40;;;;;;5066321;28;20033;-68
2023/04/06 09:28:00;;;;;;;8.52;5.80;;;256.00;1638.40;;;;;;5059395;28;19908;-70
2023/04/06 09:30:26;;;;;;;16.45;7.05;;;256.10;1689.60;;;;;;5061521;28;20052;-72
2023/04/06 09:32:55;;;;;;;12.32;7.07;;;256.10;1664.00;;;;;;5058532;28;20540;-68
2023/04/06 09:35:22;;;;;;;16.48;8.23;;;256.20;1715.20;;;;;;5059877;28;20493;-72
2023/04/06 09:37:49;;;;;;;12.80;7.10;;;256.30;1689.60;;;;;;5057714;28;20072;-68
2023/04/06 09:40:17;;;;;;;14.68;8.15;;;256.40;1689.60;;;;;;5057935;28;20496;-69
2023/04/06 09:42:46;;;;;;;13.00;7.03;;;256.30;1664.00;;;;;;5063492;28;20387;-68
2023/04/06 09:45:11;;;;;;;14.95;7.22;;;256.40;1664.00;;;;;;5058393;28;20040;-68
2023/04/06 09:47:40;;;;;;;12.90;7.57;;;256.50;1664.00;;;;;;5060714;28;20021;-70
2023/04/06 09:50:09;;;;;;;15.13;7.15;;;256.40;1638.40;;;;;;5054489;28;20115;-69
2023/04/06 09:52:42;;;;;;;11.65;7.45;;;256.50;1664.00;;;;;;5066027;28;20025;-69
2023/04/06 09:55:09;;;;;;;17.42;9.82;;;256.50;1612.80;;;;;;5061761;28;20032;-72
2023/04/06 09:57:50;;;;;;;15.05;7.30;;;256.60;1638.40;;;;;;5060400;28;20032;-71
2023/04/06 10:00:21;;;;;;;13.85;7.82;;;256.70;1638.40;;;;;;5057607;28;20032;-70
2023/04/06 10:03:03;;;;;;;13.38;7.78;;;256.70;1561.60;;;;;;5065773;28;20036;-68
2023/04/06 10:06:01;;;;;;;10.52;8.00;;;256.70;1561.60;;;;;;5060722;28;20033;-68
2023/04/06 10:08:28;;;;;;;12.52;8.10;;;256.70;1561.60;;;;;;5063536;28;20027;-71
2023/04/06 10:10:55;;;;;;;14.25;7.93;;;256.70;1587.20;;;;;;5059553;28;20410;-69
2023/04/06 10:13:23;;;;;;;18.80;9.48;;;256.80;1612.80;;;;;;5062966;28;20108;-70
2023/04/06 10:15:49;;;;;;;14.73;7.65;;;256.90;1612.80;;;;;;5059808;28;20021;-69
2023/04/06 10:18:16;;;;;;;13.07;7.50;;;256.90;1587.20;;;;;;5063987;28;20044;-69
2023/04/06 10:21:09;;;;;;;19.08;7.80;;;256.90;1510.40;;;;;;5060106;28;20021;-70
2023/04/06 10:23:46;;;;;;;15.77;7.15;;;281.70;1612.80;;;;;;5056364;28;20142;-71
2023/04/06 10:26:17;;;;;;;10.73;7.80;;;281.60;1536.00;;;;;;5055832;28;20351;-68
2023/04/06 10:28:47;;;;;;;13.88;8.20;;;281.90;1510.40;;;;;;5061468;28;20115;-69
2023/04/06 10:31:13;;;;;;;12.95;7.90;;;281.90;1536.00;;;;;;5057143;28;20032;-69
2023/04/06 10:33:40;;;;;;;14.05;7.93;;;282.10;1536.00;;;;;;5064132;28;20097;-68
2023/04/06 10:36:13;;;;;;;13.93;8.25;;;282.20;1510.40;;;;;;5065102;28;20028;-69
2023/04/06 10:38:40;;;;;;;16.58;8.25;;;282.40;1484.80;;;;;;5062296;28;20059;-69
2023/04/06 10:41:11;;;;;;;13.60;7.55;;;307.30;1510.40;;;;;;5057773;28;20032;-68
2023/04/06 10:43:39;;;;;;;13.27;7.85;;;282.50;1484.80;;;;;;5063356;28;20032;-69
2023/04/06 10:46:07;;;;;;;17.20;8.45;;;307.40;1484.80;;;;;;5056145;28;20041;-68
2023/04/06 10:48:45;;;;;;;12.98;7.43;;;307.60;1433.60;;;;;;5060929;28;20094;-69
2023/04/06 10:51:15;;;;;;;13.20;7.80;;;307.80;1433.60;;;;;;5059640;28;20096;-70
2023/04/06 10:53:48;;;;;;;13.20;7.65;;;307.70;1433.60;;;;;;5061149;28;20035;-69
2023/04/06 10:56:20;;;;;;;15.40;8.48;;;307.60;1433.60;;;;;;5063361;28;20448;-69
2023/04/06 10:58:52;;;;;;;17.17;8.50;;;307.90;1408.00;;;;;;5059383;28;20029;-70
2023/04/06 11:01:20;;;;;;;15.93;8.05;;;308.10;1356.80;;;;;;5061547;28;20034;-69
2023/04/06 11:03:47;;;;;;;17.17;8.10;;;332.80;1382.40;;;;;;5065020;28;20098;-75
2023/04/06 11:06:23;;;;;;;17.65;8.40;;;308.10;1356.80;;;;;;5061502;28;20505;-70
2023/04/06 11:08:49;;;;;;;18.85;10.82;;;308.00;1356.80;;;;;;5067085;28;20089;-68
2023/04/06 11:11:18;;;;;;;14.60;7.70;;;332.90;1408.00;;;;;;5066421;28;20029;-75
2023/04/06 11:13:51;;;;;;;14.38;8.25;;;333.10;1331.20;;;;;;5061830;28;20037;-73
2023/04/06 11:16:31;;;;;;;16.33;8.25;;;333.00;1382.40;;;;;;5071416;28;20032;-69
2023/04/06 11:19:02;;;;;;;13.52;8.38;;;308.10;1356.80;;;;;;5067577;28;20029;-70
2023/04/06 11:21:43;;;;;;;14.02;8.95;;;307.60;1382.40;;;;;;5066050;28;20363;-75
2023/04/06 11:24:14;;;;;;;18.33;9.18;;;307.90;1433.60;;;;;;5064608;28;20095;-69
2023/04/06 11:26:48;;;;;;;11.60;8.02;;;332.90;1433.60;;;;;;5065354;28;20071;-73
2023/04/06 11:29:16;;;;;;;9.57;6.63;;;308.10;1382.40;;;;;;5064658;28;20032;-75
2023/04/06 11:31:45;;;;;;;14.38;7.93;;;307.60;1382.40;;;;;;5076857;28;20043;-68
2023/04/06 11:34:30;;;;;;;13.13;7.85;;;307.40;1408.00;;;;;;5065923;28;20028;-69
2023/04/06 11:37:05;;;;;;;13.43;7.65;;;282.50;1382.40;;;;;;5067529;28;20062;-69
2023/04/06 11:39:35;;;;;;;12.02;7.55;;;282.30;1408.00;;;;;;5063179;28;20478;-69
2023/04/06 11:42:02;;;;;;;15.30;8.50;;;282.10;1408.00;;;;;;5057692;28;20043;-76
2023/04/06 11:44:35;;;;;;;14.63;8.05;;;281.90;1433.60;;;;;;5070591;28;20028;-70
2023/04/06 11:47:09;;;;;;;13.43;7.80;;;282.20;1433.60;;;;;;5063468;28;20446;-68
2023/04/06 11:49:38;;;;;;;15.18;8.80;;;307.20;1433.60;;;;;;5059934;28;20087;-70
2023/04/06 11:52:22;;;;;;;14.23;7.47;;;282.50;1408.00;;;;;;5082905;28;20020;-69
2023/04/06 11:54:49;;;;;;;12.75;7.95;;;307.30;1408.00;;;;;;5066173;28;20500;-68
2023/04/06 11:57:16;;;;;;;14.27;7.80;;;307.30;1408.00;;;;;;5062588;28;20490;-68
2023/04/06 11:59:43;;;;;;;12.57;7.40;;;307.40;1408.00;;;;;;5070138;28;20107;-68
2023/04/06 12:02:09;;;;;;;12.50;7.40;;;282.50;1356.80;;;;;;5063382;28;20432;-73
2023/04/06 12:04:35;;;;;;;15.65;7.47;;;282.50;1356.80;;;;;;5061916;28;20025;-70
2023/04/06 12:07:01;;;;;;;13.65;6.82;;;307.40;1382.40;;;;;;5060823;28;20021;-69
2023/04/06 12:09:27;;;;;;;16.60;7.55;;;282.50;1356.80;;;;;;5068302;28;20048;-69
2023/04/06 12:11:52;;;;;;;12.75;6.97;;;282.20;1408.00;;;;;;5063722;28;20028;-71
2023/04/06 12:14:18;;;;;;;;;;;282.20;1433.60;;;;;;5063982;28;20025;-69
2023/04/06 12:16:44;;;;;;;13.13;8.10;;;282.30;1433.60;;;;;;5065585;28;19927;-69
2023/04/06 12:19:10;;;;;;;13.45;7.05;;;282.40;1433.60;;;;;;5068424;28;20465;-70
2023/04/06 12:21:38;;;;;;;;;;;282.40;1408.00;;;;;;5058600;28;20385;-69
2023/04/06 12:24:05;;;;;;;15.27;9.30;;;282.40;1382.40;;;;;;5059863;28;19999;-69
2023/04/06 12:26:31;;;;;;;12.10;7.60;;;282.20;1408.00;;;;;;5058954;28;20029;-70
2023/04/06 12:29:02;;;;;;;12.90;7.78;;;282.00;1433.60;;;;;;5066192;28;20100;-70
2023/04/06 12:31:28;;;;;;;14.30;7.43;;;281.90;1433.60;;;;;;5057376;28;20478;-70